Time;durP1;ratioP1;P1;durP2;ratioP2;P2;SDS_P1;SDS_P2;PMS_P1;PMS_P2;Temp;Humidity;BMP_temperature;BMP_pressure;BME280_temperature;BME280_humidity;BME280_pressure;Samples;Min_cycle;Max_cycle;Signal;HPM_P1;HPM_P2
2023/02/09 00:01:07;;;;;;;13.02;7.35;;;;;;;-0.18;65.83;101700.63;5072085;28;20355;-51
2023/02/09 00:03:33;;;;;;;11.75;6.78;;;;;;;-0.18;66.15;101700.63;5072754;28;20028;-55
2023/02/09 00:06:04;;;;;;;10.45;7.20;;;;;;;-0.21;65.86;101692.75;5075291;28;20512;-51
2023/02/09 00:08:30;;;;;;;12.20;8.13;;;;;;;-0.14;66.50;101701.44;5075450;28;20043;-54
2023/02/09 00:10:56;;;;;;;13.25;7.78;;;;;;;-0.12;66.52;101696.19;5075314;28;20032;-50
2023/02/09 00:13:23;;;;;;;12.30;7.25;;;;;;;-0.14;66.54;101696.19;5075585;28;20032;-52
2023/02/09 00:15:49;;;;;;;10.38;7.05;;;;;;;-0.09;66.89;101688.28;5075115;28;20024;-53
2023/02/09 00:18:14;;;;;;;11.00;7.25;;;;;;;-0.12;66.41;101688.28;5075011;28;20040;-51
2023/02/09 00:20:41;;;;;;;10.73;7.38;;;;;;;-0.09;66.46;101683.00;5075496;28;20336;-53
2023/02/09 00:23:06;;;;;;;10.75;7.63;;;;;;;-0.09;66.75;101681.25;5075237;28;20091;-50
2023/02/09 00:25:31;;;;;;;9.68;6.82;;;;;;;-0.07;66.94;101675.97;5074945;28;20032;-51
2023/02/09 00:27:57;;;;;;;12.27;7.28;;;;;;;-0.10;66.75;101674.25;5075167;28;20455;-48
2023/02/09 00:30:22;;;;;;;14.52;7.30;;;;;;;-0.10;67.23;101666.34;5074878;28;20427;-54
2023/02/09 00:32:48;;;;;;;13.45;7.82;;;;;;;-0.08;67.04;101659.31;5074636;28;20032;-51
2023/02/09 00:35:13;;;;;;;13.52;7.82;;;;;;;-0.02;66.82;101663.63;5074237;28;20033;-53
2023/02/09 00:37:40;;;;;;;10.27;7.22;;;;;;;-0.04;66.87;101666.28;5075556;28;20059;-49
2023/02/09 00:40:06;;;;;;;11.30;7.32;;;;;;;-0.06;66.81;101657.53;5074841;28;20028;-51
2023/02/09 00:42:32;;;;;;;11.63;7.80;;;;;;;-0.10;67.39;101652.28;5074590;28;20063;-48
2023/02/09 00:44:57;;;;;;;15.00;7.63;;;;;;;-0.14;67.46;101648.78;5075362;28;20459;-48
2023/02/09 00:47:23;;;;;;;14.57;8.02;;;;;;;-0.09;67.63;101659.31;5074961;28;20443;-53
2023/02/09 00:49:48;;;;;;;11.02;7.47;;;;;;;-0.12;67.53;101647.06;5074549;28;20032;-52
2023/02/09 00:52:14;;;;;;;12.43;7.57;;;;;;;-0.10;67.61;101650.53;5074689;28;20035;-52
2023/02/09 00:54:39;;;;;;;13.23;7.68;;;;;;;-0.10;67.99;101657.56;5075234;28;20039;-54
2023/02/09 00:57:05;;;;;;;11.23;7.70;;;;;;;-0.10;67.54;101655.81;5074639;28;20028;-52
2023/02/09 00:59:32;;;;;;;10.77;6.88;;;;;;;-0.08;67.77;101643.50;5074285;28;20024;-55
2023/02/09 01:01:58;;;;;;;14.20;7.78;;;;;;;-0.08;67.93;101650.53;5074548;28;20175;-53
2023/02/09 01:04:23;;;;;;;12.30;7.53;;;;;;;-0.06;67.84;101640.84;5074780;28;20119;-51
2023/02/09 01:06:48;;;;;;;10.45;6.95;;;;;;;-0.05;67.87;101643.47;5074447;28;20412;-50
2023/02/09 01:09:14;;;;;;;14.45;7.85;;;;;;;-0.04;68.07;101639.97;5074402;28;20455;-50
2023/02/09 01:11:39;;;;;;;13.07;7.78;;;;;;;-0.02;68.05;101638.19;5074293;28;20081;-50
2023/02/09 01:14:05;;;;;;;12.00;7.32;;;;;;;-0.01;68.09;101650.47;5074592;28;20418;-51
2023/02/09 01:16:31;;;;;;;10.57;7.20;;;;;;;-0.04;68.36;101639.06;5073600;28;20032;-51
2023/02/09 01:19:01;;;;;;;12.35;7.45;;;;;;;0.05;68.54;101652.19;5074012;28;20095;-51
2023/02/09 01:21:27;;;;;;;9.40;6.70;;;;;;;0.02;68.37;101644.31;5073827;28;20113;-50
2023/02/09 01:23:53;;;;;;;9.70;7.38;;;;;;;-0.01;68.20;101639.94;5074354;28;20108;-52
2023/02/09 01:26:19;;;;;;;9.80;6.68;;;;;;;-0.18;68.16;101611.09;5074140;28;20107;-49
2023/02/09 01:28:49;;;;;;;10.40;6.63;;;;;;;0.04;68.35;101641.66;5073984;28;20035;-51
2023/02/09 01:31:19;;;;;;;10.23;6.75;;;;;;;0.05;68.52;101643.41;5073791;28;20028;-56
2023/02/09 01:33:45;;;;;;;10.30;6.78;;;;;;;-0.02;68.41;101632.03;5073973;28;20046;-51
2023/02/09 01:36:10;;;;;;;9.75;7.07;;;;;;;0.03;68.69;101639.91;5074509;28;20107;-50
2023/02/09 01:38:36;;;;;;;12.23;7.30;;;;;;;0.05;68.28;101641.66;5073523;28;20060;-49
2023/02/09 01:41:01;;;;;;;10.48;7.18;;;;;;;0.04;68.26;101632.00;5073319;28;20119;-49
2023/02/09 01:43:27;;;;;;;11.05;7.32;;;;;;;0.01;68.32;101631.16;5073759;28;20041;-48
2023/02/09 01:45:54;;;;;;;10.60;7.32;;;;;;;0.06;68.39;101640.78;5073292;28;20094;-50
2023/02/09 01:48:24;;;;;;;10.70;7.78;;;;;;;0.04;68.49;101628.50;5073482;28;20025;-52
2023/02/09 01:50:53;;;;;;;12.82;7.78;;;;;;;0.05;68.52;101636.38;5073478;28;20035;-50
2023/02/09 01:53:19;;;;;;;10.50;6.82;;;;;;;0.06;68.84;101629.34;5073071;28;20112;-51
2023/02/09 01:55:52;;;;;;;11.93;7.57;;;;;;;0.14;68.94;101638.09;5073714;28;20025;-55
2023/02/09 01:58:21;;;;;;;11.07;7.50;;;;;;;0.13;68.74;101634.56;5073173;28;20055;-48
2023/02/09 02:00:48;;;;;;;11.00;7.13;;;;;;;0.11;68.53;101628.44;5062808;28;20032;-54
2023/02/09 02:03:17;;;;;;;10.00;7.32;;;;;;;0.19;68.97;101638.91;5053669;28;20106;-53
2023/02/09 02:05:46;;;;;;;10.07;7.05;;;;;;;0.02;68.69;101607.44;5053107;28;20036;-54
2023/02/09 02:08:34;;;;;;;11.95;7.38;;;;;;;0.26;69.21;101629.22;5053594;28;20037;-50
2023/02/09 02:11:00;;;;;;;8.95;6.95;;;;;;;0.18;68.91;101629.25;5052718;28;20024;-50
2023/02/09 02:13:25;;;;;;;10.75;7.32;;;;;;;0.20;69.42;101634.50;5052794;28;20392;-50
2023/02/09 02:16:19;;;;;;;9.50;6.97;;;;;;;0.31;69.20;101637.06;5053325;28;20028;-48
2023/02/09 02:19:15;;;;;;;9.75;7.18;;;;;;;0.22;69.13;101623.09;5053131;28;20029;-50
2023/02/09 02:22:19;;;;;;;11.75;7.70;;;;;;;0.39;68.96;101649.28;5052846;28;20040;-51
2023/02/09 02:25:22;;;;;;;10.18;7.05;;;;;;;0.41;68.81;101646.63;5052797;28;20041;-48
2023/02/09 02:28:06;;;;;;;10.13;7.05;;;;;;;0.40;69.14;101651.03;5051905;28;20053;-57
2023/02/09 02:30:47;;;;;;;12.82;7.32;;;;;;;0.42;69.09;101654.50;5052676;28;20118;-51
2023/02/09 02:33:59;;;;;;;9.75;7.40;;;;;;;0.42;69.06;101657.16;5053177;28;20486;-50
2023/02/09 02:36:27;;;;;;;9.35;6.97;;;;;;;0.35;68.74;101651.94;5052271;28;20415;-51
2023/02/09 02:39:16;;;;;;;14.93;7.60;;;;;;;0.35;69.31;101652.81;5052521;28;20462;-50
2023/02/09 02:44:40;;;;;;;10.57;7.38;;;;;;;0.33;69.09;101644.06;5052597;28;20361;-50
2023/02/09 02:47:10;;;;;;;13.38;8.77;;;;;;;0.31;69.21;101645.84;5052431;28;20463;-53
2023/02/09 02:49:48;;;;;;;11.05;8.23;;;;;;;0.34;69.40;101648.44;5052905;28;20355;-54
2023/02/09 02:52:14;;;;;;;12.32;8.65;;;;;;;0.33;69.62;101643.19;5052796;28;20044;-50
2023/02/09 02:54:59;;;;;;;13.85;8.23;;;;;;;0.34;69.11;101652.81;5052118;28;20076;-50
2023/02/09 02:57:30;;;;;;;14.88;7.88;;;;;;;0.26;68.81;101650.28;5052596;28;20037;-51
2023/02/09 03:00:20;;;;;;;12.02;7.60;;;;;;;0.19;69.38;101641.53;5055077;28;20094;-51
2023/02/09 03:02:52;;;;;;;12.93;8.35;;;;;;;0.21;69.52;101652.94;5072948;28;20025;-52
2023/02/09 03:05:21;;;;;;;13.50;8.38;;;;;;;0.23;69.86;101652.91;5072554;28;20059;-52
2023/02/09 03:07:47;;;;;;;12.13;7.82;;;;;;;0.22;69.61;101643.25;5073023;28;20064;-50
2023/02/09 03:10:26;;;;;;;11.90;8.50;;;;;;;0.30;69.53;101641.47;5072648;28;20402;-53
2023/02/09 03:13:27;;;;;;;11.85;8.43;;;;;;;0.29;69.34;101639.72;5072216;28;20374;-53
2023/02/09 03:16:19;;;;;;;13.30;8.70;;;;;;;0.37;69.78;101637.88;5000587;28;20049;-50
2023/02/09 03:18:44;;;;;;;14.27;8.40;;;;;;;0.31;69.45;101639.69;5072463;28;20154;-48
2023/02/09 03:21:15;;;;;;;16.63;8.68;;;;;;;0.31;69.06;101632.66;5072407;28;20123;-50
2023/02/09 03:23:43;;;;;;;12.65;7.95;;;;;;;0.26;69.38;101626.56;5072133;28;20040;-50
2023/02/09 03:26:14;;;;;;;12.00;8.73;;;;;;;0.27;69.48;101633.59;5071979;28;20412;-52
2023/02/09 03:28:44;;;;;;;13.43;8.35;;;;;;;0.24;69.41;101628.31;5071772;28;20037;-51
2023/02/09 03:31:10;;;;;;;11.63;8.27;;;;;;;0.23;69.17;101626.56;5072269;28;20028;-51
2023/02/09 03:33:37;;;;;;;12.63;8.55;;;;;;;0.27;69.23;101629.19;5071851;28;20032;-49
2023/02/09 03:36:08;;;;;;;11.50;8.52;;;;;;;0.27;69.35;101633.59;5071992;28;20041;-50
2023/02/09 03:38:34;;;;;;;14.27;9.05;;;;;;;0.22;69.76;101625.72;5073262;28;20367;-49
2023/02/09 03:40:59;;;;;;;12.45;8.93;;;;;;;0.24;69.80;101633.59;5074761;28;20024;-48
2023/02/09 03:44:25;;;;;;;12.30;8.85;;;;;;;0.26;69.22;101631.84;5075661;28;20044;-53
2023/02/09 03:46:11;;;;;;;15.02;8.25;;;;;;;0.06;68.99;101598.63;5074497;28;20090;-50
2023/02/09 03:48:37;;;;;;;12.50;8.00;;;;;;;0.22;68.80;101632.72;5075137;28;20036;-51
2023/02/09 03:51:02;;;;;;;13.82;8.57;;;;;;;0.16;69.06;101630.16;5075333;28;20073;-51
2023/02/09 03:53:28;;;;;;;14.52;8.40;;;;;;;0.05;68.71;101633.75;5075510;28;20110;-52
2023/02/09 03:55:53;;;;;;;12.52;8.23;;;;;;;0.02;69.58;101627.63;5075564;28;20032;-55
2023/02/09 03:58:18;;;;;;;12.02;8.30;;;;;;;0.03;68.88;101622.38;5075808;28;20029;-55
2023/02/09 04:00:44;;;;;;;11.68;8.27;;;;;;;0.07;69.16;101620.56;5065048;28;20027;-48
2023/02/09 04:03:09;;;;;;;13.13;8.98;;;;;;;0.13;69.17;101624.03;5055559;28;20120;-49
2023/02/09 04:05:35;;;;;;;12.50;8.85;;;;;;;0.18;69.13;101628.38;5055547;28;20102;-55
2023/02/09 04:08:00;;;;;;;17.42;9.30;;;;;;;0.23;69.39;101627.47;5055171;28;20028;-54
2023/02/09 04:10:27;;;;;;;15.65;9.98;;;;;;;0.29;69.21;101623.91;5055155;28;20456;-54
2023/02/09 04:12:52;;;;;;;14.77;9.65;;;;;;;0.33;68.94;101630.88;5055625;28;20052;-54
2023/02/09 04:15:18;;;;;;;15.13;10.27;;;;;;;0.37;68.91;101629.97;5055128;28;20087;-55
2023/02/09 04:17:43;;;;;;;14.48;9.50;;;;;;;0.36;68.84;101625.59;5055126;28;20503;-53
2023/02/09 04:20:09;;;;;;;18.48;10.18;;;;;;;0.38;69.09;101623.81;5055329;28;20028;-56
2023/02/09 04:22:34;;;;;;;15.45;10.13;;;;;;;0.40;69.06;101621.19;5054833;28;20032;-56
2023/02/09 04:25:00;;;;;;;14.88;9.57;;;;;;;0.43;68.93;101622.00;5059454;28;20362;-50
2023/02/09 04:27:27;;;;;;;18.23;10.57;;;;;;;0.42;68.97;101612.34;5074289;28;20399;-50
2023/02/09 04:29:52;;;;;;;17.33;10.13;;;;;;;0.42;69.13;101620.25;5074835;28;20037;-51
2023/02/09 04:32:18;;;;;;;16.15;10.68;;;;;;;0.43;68.84;101608.81;5074624;28;20504;-52
2023/02/09 04:34:43;;;;;;;16.25;10.63;;;;;;;0.49;68.73;101612.31;5074522;28;20111;-49
2023/02/09 04:37:08;;;;;;;15.50;9.50;;;;;;;0.49;68.76;101607.03;5074531;28;20052;-49
2023/02/09 04:39:34;;;;;;;18.60;10.45;;;;;;;0.51;68.27;101610.53;5074765;28;20047;-48
2023/02/09 04:42:00;;;;;;;17.85;10.80;;;;;;;0.50;68.84;101624.59;5074522;28;20055;-51
2023/02/09 04:44:25;;;;;;;17.92;10.38;;;;;;;0.51;68.49;101636.88;5074858;28;20040;-56
2023/02/09 04:46:51;;;;;;;19.15;11.07;;;;;;;0.51;68.57;101631.63;5075087;28;20093;-50
2023/02/09 04:49:16;;;;;;;19.27;10.68;;;;;;;0.49;67.92;101622.84;5074523;28;20435;-50
2023/02/09 04:51:42;;;;;;;18.48;11.27;;;;;;;0.49;68.42;101618.44;5073070;28;20332;-51
2023/02/09 04:54:07;;;;;;;17.40;11.60;;;;;;;0.49;68.26;101620.22;5074721;28;20509;-53
2023/02/09 04:56:33;;;;;;;19.50;11.90;;;;;;;0.28;67.90;101577.38;5074839;28;20424;-54
2023/02/09 05:01:42;;;;;;;18.65;11.95;;;;;;;0.48;67.42;101626.34;5074178;28;20365;-53
2023/02/09 05:04:08;;;;;;;18.67;11.35;;;;;;;0.46;67.85;101620.22;5074210;28;20036;-50
2023/02/09 05:06:33;;;;;;;19.40;11.90;;;;;;;0.48;67.79;101621.06;5074389;28;20043;-53
2023/02/09 05:08:58;;;;;;;18.40;11.75;;;;;;;0.44;68.10;101612.34;5074137;28;20032;-54
2023/02/09 05:11:24;;;;;;;18.70;11.07;;;;;;;0.45;68.41;101614.09;5073966;28;20116;-54
2023/02/09 05:13:49;;;;;;;19.88;10.93;;;;;;;0.46;68.07;101609.69;5073888;28;20362;-53
2023/02/09 05:16:16;;;;;;;22.27;12.65;;;;;;;0.35;68.04;101588.69;5073089;28;20028;-56
2023/02/09 05:18:42;;;;;;;20.10;11.43;;;;;;;0.46;67.97;101604.41;5072395;28;20115;-52
2023/02/09 05:21:08;;;;;;;21.75;12.63;;;;;;;0.48;68.49;101610.53;5073032;28;20162;-52
2023/02/09 05:23:33;;;;;;;20.08;11.45;;;;;;;0.48;68.21;101613.16;5074113;28;20028;-53
2023/02/09 05:25:59;;;;;;;24.42;12.27;;;;;;;0.49;68.13;101612.31;5074269;28;20056;-51
2023/02/09 05:28:24;;;;;;;24.45;13.18;;;;;;;0.50;68.03;101614.06;5073863;28;20032;-50
2023/02/09 05:30:52;;;;;;;21.35;12.63;;;;;;;0.52;68.05;101621.03;5073688;28;20044;-53
2023/02/09 05:33:22;;;;;;;21.20;12.35;;;;;;;0.57;67.61;101615.72;5074059;28;20245;-54
2023/02/09 05:35:49;;;;;;;24.02;11.90;;;;;;;0.55;67.92;101621.00;5073444;28;20060;-53
2023/02/09 05:38:15;;;;;;;20.88;11.75;;;;;;;0.58;67.63;101622.75;5053422;28;20106;-54
2023/02/09 05:40:40;;;;;;;23.20;13.23;;;;;;;0.62;67.77;101624.47;5065507;28;20451;-51
2023/02/09 05:43:06;;;;;;;21.13;12.95;;;;;;;0.65;67.54;101621.78;5073168;28;20058;-53
2023/02/09 05:45:31;;;;;;;20.98;12.38;;;;;;;0.71;67.61;101620.88;5073186;28;20036;-53
2023/02/09 05:47:56;;;;;;;19.90;11.77;;;;;;;0.76;67.05;101612.91;5073657;28;20020;-50
2023/02/09 05:50:22;;;;;;;21.17;11.85;;;;;;;0.58;66.82;101580.56;5073173;28;20078;-49
2023/02/09 05:52:47;;;;;;;21.13;12.38;;;;;;;0.77;66.78;101623.41;5073377;28;20096;-53
2023/02/09 05:55:13;;;;;;;21.17;12.40;;;;;;;0.78;66.48;101616.41;5072183;28;20069;-50
2023/02/09 05:57:39;;;;;;;21.25;12.32;;;;;;;0.82;66.26;101620.75;5072513;28;20066;-51
2023/02/09 06:00:05;;;;;;;22.30;12.73;;;;;;;0.82;66.25;101615.47;5073112;28;20020;-52
2023/02/09 06:02:31;;;;;;;23.15;12.38;;;;;;;0.69;66.36;101601.56;5072253;28;20410;-50
2023/02/09 06:04:56;;;;;;;21.90;12.07;;;;;;;0.88;66.25;101625.09;5072864;28;20028;-55
2023/02/09 06:07:21;;;;;;;22.30;12.55;;;;;;;0.90;65.84;101626.78;5073236;28;20036;-48
2023/02/09 06:09:47;;;;;;;22.33;12.18;;;;;;;0.91;66.46;101625.91;5072928;28;20453;-49
2023/02/09 06:12:12;;;;;;;22.38;13.00;;;;;;;0.95;66.16;101619.69;5072836;28;20036;-52
2023/02/09 06:14:38;;;;;;;23.42;13.18;;;;;;;0.97;65.90;101622.34;5073233;28;20037;-52
2023/02/09 06:17:03;;;;;;;22.35;12.48;;;;;;;0.98;66.09;101624.06;5072251;28;20103;-49
2023/02/09 06:19:29;;;;;;;22.60;12.73;;;;;;;0.96;65.41;101618.81;5073152;28;20056;-52
2023/02/09 06:21:55;;;;;;;25.27;13.10;;;;;;;0.97;65.94;101607.41;5072891;28;20060;-55
2023/02/09 06:24:20;;;;;;;24.13;13.45;;;;;;;0.96;65.45;101612.69;5072732;28;20036;-49
2023/02/09 06:26:46;;;;;;;25.30;13.30;;;;;;;0.94;65.80;101617.94;5072116;28;20067;-52
2023/02/09 06:29:12;;;;;;;24.02;13.25;;;;;;;0.95;66.11;101611.78;5072128;28;20052;-49
2023/02/09 06:31:39;;;;;;;22.48;13.25;;;;;;;0.97;66.04;101599.47;5072440;28;20466;-50
2023/02/09 06:34:05;;;;;;;23.48;13.10;;;;;;;0.98;66.25;101606.50;5072464;28;20069;-53
2023/02/09 06:36:31;;;;;;;24.80;13.10;;;;;;;1.03;65.81;101597.66;5072642;28;20064;-54
2023/02/09 06:38:56;;;;;;;23.45;12.73;;;;;;;1.03;65.88;101597.66;5072816;28;20055;-51
2023/02/09 06:41:22;;;;;;;22.83;13.63;;;;;;;1.05;65.68;101607.28;5072725;28;20061;-55
2023/02/09 06:43:48;;;;;;;25.58;13.63;;;;;;;1.04;65.61;101584.44;5072268;28;20102;-56
2023/02/09 06:46:14;;;;;;;28.58;14.05;;;;;;;0.90;65.74;101566.13;5072195;28;20040;-53
2023/02/09 06:48:39;;;;;;;24.85;13.63;;;;;;;1.11;65.87;101595.78;5071831;28;20060;-50
2023/02/09 06:51:13;;;;;;;24.30;13.55;;;;;;;1.20;66.01;101600.94;5072352;28;20064;-52
2023/02/09 06:53:39;;;;;;;22.27;12.48;;;;;;;1.00;65.56;101566.91;5072153;28;20028;-50
2023/02/09 06:56:06;;;;;;;22.48;12.07;;;;;;;1.22;65.10;101599.16;5072037;28;20028;-52
2023/02/09 06:58:31;;;;;;;23.92;12.63;;;;;;;1.21;65.45;101589.50;5072669;28;20020;-50
2023/02/09 07:01:02;;;;;;;20.33;11.93;;;;;;;1.26;65.27;101587.69;5072213;28;20462;-50
2023/02/09 07:03:27;;;;;;;23.27;11.77;;;;;;;1.32;65.31;101601.69;5071489;28;20032;-48
2023/02/09 07:05:53;;;;;;;19.75;11.80;;;;;;;1.33;65.13;101600.78;5071288;28;20031;-53
2023/02/09 07:08:18;;;;;;;20.15;11.40;;;;;;;1.34;64.67;101598.13;5072343;28;20037;-49
2023/02/09 07:10:44;;;;;;;24.02;14.55;;;;;;;1.39;64.65;101605.97;5072561;28;20154;-52
2023/02/09 07:13:09;;;;;;;19.45;11.50;;;;;;;1.35;63.97;101609.56;5072399;28;20435;-51
2023/02/09 07:15:34;;;;;;;23.80;11.70;;;;;;;1.34;64.76;101602.53;5071187;28;20060;-52
2023/02/09 07:18:00;;;;;;;21.58;11.77;;;;;;;1.33;64.54;101598.16;5058342;28;20042;-55
2023/02/09 07:20:25;;;;;;;20.50;11.65;;;;;;;1.34;64.59;101603.41;5055811;28;20134;-52
2023/02/09 07:22:51;;;;;;;21.30;12.07;;;;;;;1.43;64.70;101602.38;5054348;28;20025;-51
2023/02/09 07:25:16;;;;;;;22.10;11.27;;;;;;;1.48;64.38;101597.94;5055757;28;20025;-48
2023/02/09 07:27:43;;;;;;;20.40;10.75;;;;;;;1.52;64.05;101598.75;5054855;28;20044;-52
2023/02/09 07:30:10;;;;;;;22.45;11.50;;;;;;;1.55;63.58;101602.22;5056541;28;20040;-49
2023/02/09 07:32:38;;;;;;;20.38;10.73;;;;;;;1.65;63.34;101607.38;5073615;28;20035;-53
2023/02/09 07:35:04;;;;;;;19.10;10.40;;;;;;;1.67;63.51;101608.22;5074858;28;20040;-51
2023/02/09 07:37:30;;;;;;;18.00;10.68;;;;;;;1.73;63.56;101608.16;5076238;28;20038;-51
2023/02/09 07:39:55;;;;;;;17.75;10.88;;;;;;;1.80;63.24;101612.44;5075630;28;20418;-52
2023/02/09 07:42:21;;;;;;;16.90;9.77;;;;;;;1.81;62.94;101586.88;5075620;28;20495;-54
2023/02/09 07:44:47;;;;;;;15.40;9.60;;;;;;;1.91;62.63;101598.16;5074911;28;20037;-55
2023/02/09 07:47:13;;;;;;;17.45;9.30;;;;;;;1.67;62.10;101561.56;5075622;28;20051;-51
2023/02/09 07:49:38;;;;;;;14.80;9.05;;;;;;;1.84;62.39;101593.00;5075586;28;20431;-49
2023/02/09 07:52:04;;;;;;;13.55;9.23;;;;;;;1.92;61.81;101589.34;5075737;28;20051;-53
2023/02/09 07:54:29;;;;;;;13.88;8.60;;;;;;;1.94;62.68;101584.94;5075951;28;20423;-52
2023/02/09 07:56:55;;;;;;;15.10;8.82;;;;;;;2.01;61.96;101582.16;5075640;28;20036;-50
2023/02/09 07:59:20;;;;;;;15.65;9.18;;;;;;;2.05;61.97;101596.19;5075625;28;20032;-51
2023/02/09 08:01:46;;;;;;;14.55;8.68;;;;;;;2.06;62.20;101597.94;5075977;28;20363;-51
2023/02/09 08:04:11;;;;;;;15.85;9.80;;;;;;;2.06;61.74;101597.94;5075664;28;20439;-49
2023/02/09 08:06:47;;;;;;;16.00;8.82;;;;;;;2.15;62.23;101594.25;5075542;28;20029;-53
2023/02/09 08:09:13;;;;;;;;;;;;;;;2.53;62.07;101589.19;5076323;28;20036;-51
2023/02/09 08:11:43;;;;;;;15.65;8.65;;;;;;;2.36;61.39;101590.38;5075675;28;19912;-51
2023/02/09 08:14:19;;;;;;;13.88;8.60;;;;;;;2.32;61.60;101598.41;5075467;28;20060;-51
2023/02/09 08:16:47;;;;;;;16.60;8.98;;;;;;;2.27;61.43;101591.41;5075753;28;20442;-50
2023/02/09 08:19:18;;;;;;;14.73;8.15;;;;;;;2.30;61.48;101593.13;5075810;28;20102;-51
2023/02/09 08:21:47;;;;;;;12.40;7.97;;;;;;;2.06;60.95;101560.94;5075324;28;20032;-54
2023/02/09 08:24:14;;;;;;;11.10;6.80;;;;;;;2.20;60.94;101595.06;5074946;28;20427;-50
2023/02/09 08:26:40;;;;;;;14.60;7.78;;;;;;;2.23;61.28;101589.72;5073732;28;20111;-48
2023/02/09 08:29:07;;;;;;;16.02;8.55;;;;;;;2.21;61.06;101585.38;5075554;28;20107;-50
2023/02/09 08:31:33;;;;;;;17.88;8.52;;;;;;;2.23;60.49;101589.72;5075406;28;20028;-53
2023/02/09 08:33:58;;;;;;;18.73;7.97;;;;;;;2.21;61.16;101593.31;5075153;28;20142;-52
2023/02/09 08:36:24;;;;;;;15.75;7.72;;;;;;;2.21;61.43;101588.00;5074437;28;20040;-55
2023/02/09 08:38:49;;;;;;;14.07;8.50;;;;;;;2.19;61.11;101588.03;5075214;28;20033;-55
2023/02/09 08:41:16;;;;;;;14.20;8.18;;;;;;;2.18;60.73;101603.94;5074938;28;20064;-53
2023/02/09 08:43:46;;;;;;;15.63;8.68;;;;;;;2.15;61.72;101596.91;5075102;28;20052;-52
2023/02/09 08:46:12;;;;;;;16.27;8.98;;;;;;;2.19;61.11;101595.09;5075385;28;20529;-50
2023/02/09 08:48:44;;;;;;;16.42;9.05;;;;;;;2.21;61.17;101594.16;5075402;28;20037;-52
2023/02/09 08:51:11;;;;;;;19.70;8.40;;;;;;;2.23;61.69;101589.72;5074616;28;20028;-60
2023/02/09 08:53:37;;;;;;;13.82;8.48;;;;;;;2.30;61.45;101593.13;5075285;28;20032;-49
2023/02/09 08:56:04;;;;;;;16.17;9.60;;;;;;;2.37;61.14;101592.09;5074001;28;20040;-51
2023/02/09 08:58:30;;;;;;;14.02;8.43;;;;;;;2.33;60.25;101579.84;5074706;28;20029;-50
2023/02/09 09:00:56;;;;;;;13.55;8.25;;;;;;;2.35;60.75;101585.97;5074390;28;20036;-54
2023/02/09 09:03:27;;;;;;;22.52;9.30;;;;;;;2.39;60.41;101582.38;5074739;28;20040;-50
2023/02/09 09:06:04;;;;;;;16.60;8.90;;;;;;;2.51;61.03;101583.06;5075035;28;20060;-49
2023/02/09 09:08:31;;;;;;;13.77;8.85;;;;;;;2.46;60.06;101584.94;5074670;28;20106;-53
2023/02/09 09:10:57;;;;;;;15.77;9.60;;;;;;;2.42;60.40;101574.41;5074270;28;20029;-51
2023/02/09 09:13:23;;;;;;;12.90;7.78;;;;;;;2.46;60.36;101571.72;5074524;28;20066;-52
2023/02/09 09:15:48;;;;;;;12.05;8.07;;;;;;;2.48;59.98;101576.06;5074768;28;20469;-50
2023/02/09 09:18:14;;;;;;;14.15;8.13;;;;;;;2.51;60.13;101580.41;5074564;28;20028;-50
2023/02/09 09:20:40;;;;;;;12.85;7.72;;;;;;;2.50;60.27;101578.69;5074480;28;20033;-51
2023/02/09 09:23:06;;;;;;;15.18;9.25;;;;;;;2.48;60.57;101575.19;5074568;28;20086;-51
2023/02/09 09:25:32;;;;;;;15.82;9.23;;;;;;;2.52;60.58;101577.72;5074331;28;20057;-49
2023/02/09 09:27:58;;;;;;;15.75;9.55;;;;;;;2.57;60.35;101572.38;5073788;28;20037;-54
2023/02/09 09:30:23;;;;;;;16.05;9.07;;;;;;;2.60;60.39;101582.88;5073844;28;20039;-53
2023/02/09 09:32:48;;;;;;;16.85;9.75;;;;;;;2.39;60.10;101550.66;5073977;28;20363;-52
2023/02/09 09:35:14;;;;;;;15.02;8.80;;;;;;;2.51;59.60;101577.78;5073767;28;20094;-52
2023/02/09 09:37:40;;;;;;;17.05;9.32;;;;;;;2.46;61.03;101579.66;5073511;28;20111;-52
2023/02/09 09:40:06;;;;;;;16.45;10.02;;;;;;;2.44;61.09;101582.31;5073577;28;20035;-49
2023/02/09 09:42:42;;;;;;;17.02;9.65;;;;;;;2.56;60.98;101576.81;5073592;28;20070;-51
2023/02/09 09:45:14;;;;;;;15.70;9.00;;;;;;;2.49;60.99;101547.84;5073950;28;20041;-54
2023/02/09 09:47:42;;;;;;;16.40;9.10;;;;;;;2.53;61.02;101563.66;5074066;28;20025;-51
2023/02/09 09:50:17;;;;;;;15.50;8.98;;;;;;;2.60;61.39;101556.44;5074000;28;20056;-53
2023/02/09 09:52:46;;;;;;;16.17;9.73;;;;;;;2.58;60.07;101568.81;5073622;28;20032;-58
2023/02/09 09:55:25;;;;;;;15.55;9.35;;;;;;;2.69;60.91;101560.69;5073787;28;20033;-52
2023/02/09 09:57:53;;;;;;;14.90;8.95;;;;;;;2.68;60.51;101556.28;5073736;28;20094;-49
2023/02/09 10:00:25;;;;;;;23.13;10.77;;;;;;;2.73;59.84;101546.47;5073343;28;20043;-52
2023/02/09 10:02:51;;;;;;;23.70;9.80;;;;;;;2.51;61.05;101536.34;5073379;28;20040;-51
2023/02/09 10:05:21;;;;;;;16.17;10.48;;;;;;;2.57;60.99;101543.28;5073667;28;20032;-52
2023/02/09 10:08:08;;;;;;;17.33;9.57;;;;;;;2.75;61.21;101546.47;5073094;28;20082;-52
2023/02/09 10:10:40;;;;;;;16.13;9.18;;;;;;;2.72;60.44;101540.34;5072999;28;20473;-51
2023/02/09 10:13:15;;;;;;;15.32;9.43;;;;;;;2.83;60.80;101541.88;5073284;28;20093;-52
2023/02/09 10:15:49;;;;;;;16.65;8.85;;;;;;;2.83;60.29;101542.78;5073486;28;20458;-50
2023/02/09 10:18:16;;;;;;;15.48;8.98;;;;;;;2.87;59.73;101538.25;5072039;28;20437;-50
2023/02/09 10:20:51;;;;;;;18.65;9.52;;;;;;;2.90;60.37;101529.41;5073315;28;20079;-53
2023/02/09 10:23:19;;;;;;;14.07;8.88;;;;;;;2.81;60.42;101504.00;5072671;28;20074;-49
2023/02/09 10:25:53;;;;;;;17.67;9.75;;;;;;;3.01;60.54;101530.03;5067131;28;20061;-59
2023/02/09 10:28:24;;;;;;;15.20;9.18;;;;;;;2.97;59.99;101508.09;5071459;28;20032;-51
2023/02/09 10:30:52;;;;;;;14.65;9.02;;;;;;;3.12;59.22;101535.09;5053942;28;20033;-52
2023/02/09 10:33:18;;;;;;;13.85;8.52;;;;;;;3.08;59.49;101530.78;5052627;28;20132;-55
2023/02/09 10:35:50;;;;;;;15.40;8.38;;;;;;;3.05;59.82;101521.16;5052573;28;20119;-51
2023/02/09 10:38:18;;;;;;;14.93;7.88;;;;;;;2.97;59.84;101523.97;5058498;28;20366;-55
2023/02/09 10:40:46;;;;;;;18.48;8.43;;;;;;;2.90;59.80;101521.47;5062372;28;20032;-53
2023/02/09 10:43:26;;;;;;;12.77;8.23;;;;;;;2.93;59.84;101518.75;5072401;28;20047;-56
2023/02/09 10:45:58;;;;;;;16.52;8.57;;;;;;;2.93;60.01;101519.63;5070313;28;20082;-53
2023/02/09 10:48:25;;;;;;;14.40;8.32;;;;;;;2.91;59.73;101518.81;5070233;28;20028;-54
2023/02/09 10:51:05;;;;;;;14.40;8.32;;;;;;;2.91;60.16;101512.63;5072396;28;20351;-53
2023/02/09 10:53:54;;;;;;;11.68;7.85;;;;;;;2.95;59.95;101515.19;5071709;28;20031;-55
2023/02/09 10:56:23;;;;;;;13.48;7.88;;;;;;;2.83;59.80;101511.03;5062809;28;20545;-57
2023/02/09 10:58:52;;;;;;;13.18;8.20;;;;;;;2.72;59.83;101508.59;5068971;28;20036;-57
2023/02/09 11:01:24;;;;;;;18.10;8.75;;;;;;;2.74;60.74;101503.25;5071936;28;20056;-60
2023/02/09 11:03:59;;;;;;;18.00;8.63;;;;;;;2.81;60.06;101496.97;5070986;28;20082;-56
2023/02/09 11:06:25;;;;;;;14.90;8.52;;;;;;;2.83;59.93;101489.88;5069770;28;20072;-56
2023/02/09 11:09:10;;;;;;;17.75;8.50;;;;;;;2.88;59.47;101487.09;5070941;28;20048;-56
2023/02/09 11:11:39;;;;;;;14.95;7.97;;;;;;;2.89;59.66;101491.47;5072190;28;20414;-57
2023/02/09 11:14:18;;;;;;;13.85;8.02;;;;;;;2.95;59.94;101491.38;5070779;28;20215;-57
2023/02/09 11:17:07;;;;;;;14.55;8.75;;;;;;;2.98;59.61;101493.06;5070582;28;20033;-56
2023/02/09 11:19:44;;;;;;;17.33;9.00;;;;;;;2.97;60.10;101491.31;5067808;28;20062;-52
2023/02/09 11:22:16;;;;;;;16.23;9.15;;;;;;;2.92;59.90;101487.91;5071546;28;20098;-54
2023/02/09 11:24:50;;;;;;;17.45;8.98;;;;;;;2.96;59.17;101494.88;5070629;28;20035;-51
2023/02/09 11:27:30;;;;;;;12.55;7.95;;;;;;;2.99;59.41;101500.97;5070081;28;20032;-57
2023/02/09 11:30:08;;;;;;;13.52;8.13;;;;;;;2.88;59.19;101492.38;5069725;28;20029;-58
2023/02/09 11:32:42;;;;;;;11.65;7.35;;;;;;;2.64;59.22;101470.84;5069962;28;20094;-54
2023/02/09 11:35:11;;;;;;;12.25;7.50;;;;;;;2.71;59.47;101484.81;5068901;28;20444;-59